Time;durP1;ratioP1;P1;durP2;ratioP2;P2;SDS_P1;SDS_P2;PMS_P1;PMS_P2;Temp;Humidity;BMP_temperature;BMP_pressure;BME280_temperature;BME280_humidity;BME280_pressure;Samples;Min_cycle;Max_cycle;Signal;HPM_P1;HPM_P2
2022/01/22 00:01:31;;;;;;;14.48;2.53;;;;;;;;;;5076358;28;20164;-80
2022/01/22 00:03:57;;;;;;;19.75;2.15;;;;;;;;;;5081005;28;20146;-80
2022/01/22 00:06:23;;;;;;;15.75;2.42;;;;;;;;;;5099945;28;20036;-80
2022/01/22 00:08:49;;;;;;;15.60;1.73;;;;;;;;;;5098979;28;20054;-80
2022/01/22 00:11:15;;;;;;;15.73;3.63;;;;;;;;;;5079570;28;20043;-81
2022/01/22 00:16:26;;;;;;;12.93;2.20;;;;;;;;;;5097439;28;20142;-80
2022/01/22 00:18:52;;;;;;;12.73;2.05;;;;;;;;;;5096907;28;20040;-80
2022/01/22 00:21:18;;;;;;;17.25;2.25;;;;;;;;;;5090849;28;20040;-80
2022/01/22 00:23:54;;;;;;;20.38;3.78;;;;;;;;;;5079839;28;20038;-80
2022/01/22 00:26:20;;;;;;;21.27;2.60;;;;;;;;;;5077270;28;20040;-80
2022/01/22 00:28:47;;;;;;;13.95;2.05;;;;;;;;;;5072640;28;20575;-81
2022/01/22 00:31:13;;;;;;;26.75;2.63;;;;;;;;;;5093071;28;20050;-81
2022/01/22 00:33:39;;;;;;;14.93;1.90;;;;;;;;;;5098409;28;20164;-81
2022/01/22 00:36:05;;;;;;;17.25;2.47;;;;;;;;;;5092455;28;20091;-81
2022/01/22 00:38:32;;;;;;;9.85;2.15;;;;;;;;;;5096055;28;20039;-81
2022/01/22 00:40:58;;;;;;;15.43;1.92;;;;;;;;;;5090411;28;20583;-81
2022/01/22 00:43:25;;;;;;;10.10;1.90;;;;;;;;;;5092403;28;20507;-80
2022/01/22 00:45:51;;;;;;;13.40;1.88;;;;;;;;;;5076700;28;20042;-80
2022/01/22 00:48:17;;;;;;;13.48;1.83;;;;;;;;;;5090628;28;20623;-80
2022/01/22 00:50:44;;;;;;;12.30;1.63;;;;;;;;;;5074442;28;20044;-80
2022/01/22 00:53:10;;;;;;;10.65;1.38;;;;;;;;;;5092026;28;20047;-80
2022/01/22 00:55:36;;;;;;;14.15;1.85;;;;;;;;;;5091386;28;20055;-80
2022/01/22 00:58:02;;;;;;;13.20;1.30;;;;;;;;;;5099401;28;20044;-81
2022/01/22 01:00:29;;;;;;;11.07;1.33;;;;;;;;;;5076569;28;20070;-80
2022/01/22 01:02:55;;;;;;;8.80;1.38;;;;;;;;;;5075178;28;20441;-81
2022/01/22 01:05:21;;;;;;;17.90;1.75;;;;;;;;;;5078490;28;20031;-81
2022/01/22 01:07:47;;;;;;;17.15;2.45;;;;;;;;;;5089431;28;20500;-81
2022/01/22 01:10:16;;;;;;;19.67;1.98;;;6.80;99.90;;;;;;5095004;28;20421;-81
2022/01/22 01:12:42;;;;;;;14.43;2.22;;;;;;;;;;5090379;28;20050;-80
2022/01/22 01:15:24;;;;;;;11.95;1.20;;;;;;;;;;5082709;28;20066;-81
2022/01/22 01:18:05;;;;;;;12.65;1.35;;;;;;;;;;5090353;28;20151;-81
2022/01/22 01:34:19;;;;;;;9.98;1.33;;;;;;;;;;5090643;28;20055;-81
2022/01/22 01:36:47;;;;;;;13.65;1.58;;;;;;;;;;5091071;28;20044;-81
2022/01/22 01:39:18;;;;;;;11.85;1.10;;;;;;;;;;5090136;28;20463;-81
2022/01/22 01:44:13;;;;;;;12.73;1.50;;;;;;;;;;5086323;28;20056;-81
2022/01/22 01:46:47;;;;;;;6.55;1.52;;;;;;;;;;5097660;28;20043;-82
2022/01/22 01:49:13;;;;;;;13.25;1.80;;;;;;;;;;5092614;28;20048;-81
2022/01/22 01:51:40;;;;;;;8.60;1.15;;;;;;;;;;5089864;28;20238;-81
2022/01/22 01:55:11;;;;;;;11.95;1.20;;;;;;;;;;5098716;28;20047;-81
2022/01/22 01:59:50;;;;;;;10.00;1.65;;;;;;;;;;5091172;28;20528;-82
2022/01/22 02:02:16;;;;;;;5.85;0.90;;;;;;;;;;5073578;28;20047;-81
2022/01/22 02:04:42;;;;;;;7.50;1.05;;;;;;;;;;5093199;28;20500;-81
2022/01/22 02:07:09;;;;;;;12.38;1.52;;;;;;;;;;5097314;28;20527;-81
2022/01/22 02:09:36;;;;;;;10.32;1.27;;;;;;;;;;5089865;28;20044;-81
2022/01/22 02:12:12;;;;;;;14.90;1.10;;;;;;;;;;5082730;28;20576;-82
2022/01/22 02:25:20;;;;;;;11.93;1.23;;;;;;;;;;5091583;28;20367;-81
2022/01/22 02:27:46;;;;;;;9.65;1.35;;;;;;;;;;5094966;28;20404;-81
2022/01/22 02:30:19;;;;;;;9.30;1.17;;;;;;;;;;5092524;28;20403;-82
2022/01/22 02:35:36;;;;;;;17.17;1.40;;;;;;;;;;5095670;28;20546;-82
2022/01/22 02:38:10;;;;;;;8.63;1.33;;;;;;;;;;5070843;28;21253;-81
2022/01/22 02:40:43;;;;;;;13.40;1.08;;;;;;;;;;5070963;28;20484;-82
2022/01/22 02:43:11;;;;;;;10.98;1.30;;;;;;;;;;5095167;28;20219;-82
2022/01/22 02:45:37;;;;;;;13.27;1.52;;;;;;;;;;5097173;28;20416;-82
2022/01/22 02:48:03;;;;;;;8.88;0.88;;;;;;;;;;5079664;28;20036;-81
2022/01/22 02:50:29;;;;;;;11.40;1.48;;;;;;;;;;5104210;28;20036;-82
2022/01/22 02:52:55;;;;;;;12.68;1.20;;;;;;;;;;5093079;28;20368;-82
2022/01/22 02:55:22;;;;;;;15.60;1.60;;;;;;;;;;5097684;28;20095;-81
2022/01/22 02:57:48;;;;;;;7.80;1.52;;;;;;;;;;5097630;28;20051;-81
2022/01/22 03:00:22;;;;;;;13.02;1.30;;;;;;;;;;5092642;28;20764;-82
2022/01/22 03:02:49;;;;;;;9.93;1.00;;;;;;;;;;5095864;28;20042;-82
2022/01/22 03:05:15;;;;;;;8.50;1.38;;;;;;;;;;5078327;28;20079;-82
2022/01/22 03:07:43;;;;;;;11.95;1.70;;;;;;;;;;5098796;28;20043;-82
2022/01/22 03:10:12;;;;;;;8.90;1.05;;;;;;;;;;5095584;27;20065;-82
2022/01/22 03:18:04;;;;;;;4.22;0.55;;;;;;;;;;5097087;27;20420;-81
2022/01/22 03:20:42;;;;;;;6.10;0.95;;;;;;;;;;5104926;27;20045;-82
2022/01/22 03:28:28;;;;;;;6.30;0.80;;;;;;;;;;5099243;27;20039;-82
2022/01/22 03:30:54;;;;;;;12.80;1.10;;;;;;;;;;5098630;27;20039;-81
2022/01/22 03:33:23;;;;;;;4.47;0.68;;;;;;;;;;5098837;27;20039;-81
2022/01/22 03:35:59;;;;;;;9.75;0.50;;;;;;;;;;5097217;27;20117;-81
2022/01/22 03:38:26;;;;;;;5.88;0.60;;;;;;;;;;5100954;27;20048;-81
2022/01/22 03:40:52;;;;;;;17.13;1.40;;;;;;;;;;5082932;27;20298;-81
2022/01/22 03:43:18;;;;;;;14.23;1.58;;;;;;;;;;5098565;28;20063;-81
2022/01/22 03:45:45;;;;;;;10.60;1.25;;;;;;;;;;5099517;27;20619;-81
2022/01/22 03:48:11;;;;;;;8.07;1.50;;;;;;;;;;5090334;27;20504;-81
2022/01/22 03:50:39;;;;;;;13.65;1.10;;;;;;;;;;5084843;27;20039;-80
2022/01/22 03:53:05;;;;;;;15.93;1.70;;;;;;;;;;5084740;27;20507;-80
2022/01/22 03:58:02;;;;;;;13.52;1.02;;;;;;;;;;5091955;27;20411;-81
2022/01/22 04:00:28;;;;;;;13.68;1.23;;;;;;;;;;5089369;27;20487;-81
2022/01/22 04:05:51;;;;;;;14.60;1.38;;;;;;;;;;5096431;27;20039;-81
2022/01/22 04:08:19;;;;;;;11.73;1.02;;;;;;;;;;5080146;27;20534;-80
2022/01/22 04:10:45;;;;;;;12.82;1.48;;;;;;;;;;5075862;27;20376;-81
2022/01/22 04:13:14;;;;;;;11.60;1.05;;;;;;;;;;5094513;28;20162;-82
2022/01/22 04:15:41;;;;;;;9.52;1.10;;;;;;;;;;5083281;27;20043;-81
2022/01/22 04:28:55;;;;;;;5.30;0.73;;;;;;;;;;5115408;27;20312;-82
2022/01/22 04:31:21;;;;;;;8.98;0.90;;;;;;;;;;5101282;27;20339;-82
2022/01/22 04:33:47;;;;;;;5.78;0.95;;;;;;;;;;5097053;27;20087;-82
2022/01/22 04:36:13;;;;;;;13.18;1.00;;;;;;;;;;5104220;27;20043;-82
2022/01/22 04:38:40;;;;;;;5.32;0.63;;;;;;;;;;5102730;27;20047;-81
2022/01/22 04:41:06;;;;;;;13.73;1.25;;;;;;;;;;5078054;27;20448;-81
2022/01/22 04:43:35;;;;;;;13.10;1.20;;;;;;;;;;5093286;27;20055;-82
2022/01/22 04:56:38;;;;;;;11.65;1.27;;;;;;;;;;5102164;27;20039;-81
2022/01/22 04:59:04;;;;;;;7.90;0.70;;;;;;;;;;5094809;27;20666;-81
2022/01/22 05:01:31;;;;;;;7.40;0.90;;;;;;;;;;5096914;27;20090;-82
2022/01/22 05:03:57;;;;;;;8.48;0.90;;;;;;;;;;5095905;27;20496;-82
2022/01/22 05:06:26;;;;;;;10.63;0.85;;;;;;;;;;5076985;27;20381;-82
2022/01/22 05:08:52;;;;;;;12.63;1.55;;;;;;;;;;5100813;27;20090;-82
2022/01/22 05:11:18;;;;;;;7.78;1.20;;;;;;;;;;5100112;27;20134;-81
2022/01/22 05:13:45;;;;;;;4.07;0.88;;;;;;;;;;5096730;27;20108;-82
2022/01/22 05:16:11;;;;;;;10.93;1.30;;;;;;;;;;5093976;28;20039;-82
2022/01/22 05:18:45;;;;;;;11.52;1.02;;;;;;;;;;5093890;27;20044;-82
2022/01/22 05:21:14;;;;;;;12.63;1.27;;;;;;;;;;5096592;28;20504;-81
2022/01/22 05:23:42;;;;;;;6.43;0.70;;;;;;;;;;5102486;27;20050;-82
2022/01/22 05:26:25;;;;;;;9.20;1.30;;;;;;;;;;5095179;27;20450;-81
2022/01/22 05:29:16;;;;;;;10.93;1.55;;;;;;;;;;5096292;28;20047;-82
2022/01/22 05:39:30;;;;;;;9.65;0.77;;;;;;;;;;5099399;27;20046;-81
2022/01/22 05:41:58;;;;;;;9.60;1.10;;;;;;;;;;5080027;27;20039;-81
2022/01/22 05:44:24;;;;;;;11.70;1.02;;;;;;;;;;5096887;28;20047;-81
2022/01/22 05:46:52;;;;;;;11.57;1.02;;;;;;;;;;5101162;27;20053;-81
2022/01/22 05:49:21;;;;;;;6.75;1.30;;;;;;;;;;5090969;28;20048;-80
2022/01/22 05:51:49;;;;;;;9.27;1.00;;;;;;;;;;5080074;28;20453;-81
2022/01/22 05:59:41;;;;;;;5.10;1.02;;;;;;;;;;5111839;27;20039;-81
2022/01/22 06:02:08;;;;;;;9.05;0.90;;;;;;;;;;5094925;27;20531;-82
2022/01/22 06:04:35;;;;;;;8.95;0.60;;;;;;;;;;5097621;28;20053;-81
2022/01/22 06:07:01;;;;;;;4.78;0.80;;;;;;;;;;5095444;27;20546;-81
2022/01/22 06:09:28;;;;;;;5.15;0.47;;;;;;;;;;5091529;28;20405;-81
2022/01/22 06:12:16;;;;;;;11.35;1.38;;;;;;;;;;5076668;28;20559;-80
2022/01/22 06:14:43;;;;;;;5.68;0.75;;;;;;;;;;5094056;28;20046;-81
2022/01/22 06:17:09;;;;;;;9.55;0.98;;;;;;;;;;5091502;28;20043;-80
2022/01/22 06:19:35;;;;;;;9.52;0.70;;;;;;;;;;5076252;28;20073;-81
2022/01/22 06:22:01;;;;;;;3.38;0.47;;;;;;;;;;5096343;28;20039;-81
2022/01/22 06:24:27;;;;;;;4.30;0.57;;;;;;;;;;5081705;28;20035;-81
2022/01/22 06:26:54;;;;;;;5.97;0.43;;;;;;;;;;5094991;28;20581;-81
2022/01/22 06:29:20;;;;;;;6.65;0.80;;;;;;;;;;5091780;28;20130;-81
2022/01/22 06:31:46;;;;;;;3.20;0.82;;;;;;;;;;5096699;28;20709;-81
2022/01/22 06:34:12;;;;;;;9.65;0.90;;;;;;;;;;5095079;28;20043;-81
2022/01/22 06:36:38;;;;;;;8.20;0.95;;;;;;;;;;5097863;28;20500;-82
2022/01/22 06:39:13;;;;;;;7.00;1.38;;;;;;;;;;5074624;28;20084;-82
2022/01/22 06:41:46;;;;;;;12.00;1.65;;;;;;;;;;5095944;28;20213;-82
2022/01/22 06:44:17;;;;;;;12.05;2.15;;;6.50;99.90;;;;;;5090102;27;20051;-82
2022/01/22 06:46:44;;;;;;;8.27;1.52;;;;;;;;;;5082654;27;20088;-82
2022/01/22 06:49:10;;;;;;;10.60;1.65;;;;;;;;;;5092418;27;20350;-81
2022/01/22 06:51:37;;;;;;;4.82;0.60;;;;;;;;;;5097863;27;20031;-82
2022/01/22 06:54:04;;;;;;;6.95;1.25;;;;;;;;;;5087249;27;20078;-81
2022/01/22 06:56:31;;;;;;;6.53;0.88;;;;;;;;;;5097973;27;20046;-82
2022/01/22 06:59:00;;;;;;;7.20;0.82;;;;;;;;;;5098940;27;20039;-82
2022/01/22 07:01:27;;;;;;;8.48;1.38;;;;;;;;;;5102905;28;20496;-82
2022/01/22 07:03:54;;;;;;;8.70;1.63;;;;;;;;;;5093078;27;20035;-82
2022/01/22 07:06:20;;;;;;;9.35;1.35;;;;;;;;;;5075114;27;20624;-82
2022/01/22 07:08:46;;;;;;;9.25;1.25;;;;;;;;;;5102212;27;20035;-82
2022/01/22 07:11:13;;;;;;;11.45;2.15;;;;;;;;;;5099562;28;20127;-82
2022/01/22 07:13:39;;;;;;;9.90;2.05;;;;;;;;;;5099924;27;20504;-81
2022/01/22 07:16:05;;;;;;;11.50;1.75;;;;;;;;;;5099795;27;20066;-83
2022/01/22 07:18:31;;;;;;;13.52;1.88;;;;;;;;;;5077812;27;20420;-82
2022/01/22 07:20:58;;;;;;;9.43;1.80;;;;;;;;;;5093128;27;20043;-82
2022/01/22 07:26:03;;;;;;;9.32;1.75;;;;;;;;;;5099595;27;20645;-82
2022/01/22 07:28:29;;;;;;;14.50;1.88;;;;;;;;;;5106376;27;20385;-81
2022/01/22 07:30:56;;;;;;;15.55;3.42;;;;;;;;;;5084332;27;20039;-82
2022/01/22 07:33:22;;;;;;;10.35;1.88;;;;;;;;;;5096858;27;20491;-81
2022/01/22 07:35:49;;;;;;;9.20;1.55;;;;;;;;;;5082553;27;20054;-80
2022/01/22 07:38:15;;;;;;;14.77;2.90;;;;;;;;;;5094067;27;20069;-81
2022/01/22 07:40:41;;;;;;;17.23;2.03;;;;;;;;;;5086102;27;20396;-81
2022/01/22 07:43:07;;;;;;;10.63;1.48;;;;;;;;;;5103665;27;20103;-81
2022/01/22 07:45:34;;;;;;;6.70;1.13;;;;;;;;;;5095786;27;20043;-81
2022/01/22 07:48:00;;;;;;;7.75;1.25;;;;;;;;;;5095337;27;20038;-81
2022/01/22 07:50:26;;;;;;;11.27;3.17;;;;;;;;;;5094254;27;20067;-82
2022/01/22 07:52:52;;;;;;;13.27;1.92;;;;;;;;;;5098110;27;20486;-81
2022/01/22 07:55:21;;;;;;;11.35;1.50;;;;;;;;;;5095539;28;20044;-81
2022/01/22 07:57:47;;;;;;;11.93;2.53;;;;;;;;;;5096349;27;20089;-81
2022/01/22 08:00:16;;;;;;;12.13;1.88;;;;;;;;;;5073790;28;20585;-80
2022/01/22 08:02:43;;;;;;;16.65;2.47;;;;;;;;;;5082254;27;20038;-81
2022/01/22 08:05:09;;;;;;;12.02;2.50;;;;;;;;;;5080460;27;20111;-81
2022/01/22 08:07:35;;;;;;;18.65;3.55;;;;;;;;;;5099160;27;20031;-81
2022/01/22 08:10:02;;;;;;;22.88;3.00;;;;;;;;;;5099369;27;20050;-81
2022/01/22 08:12:29;;;;;;;13.98;2.42;;;;;;;;;;5084896;27;20200;-81
2022/01/22 08:14:55;;;;;;;13.90;1.98;;;;;;;;;;5114264;27;20035;-81
2022/01/22 08:17:22;;;;;;;11.55;1.92;;;;;;;;;;5097749;27;20047;-82
2022/01/22 08:19:48;;;;;;;9.18;1.52;;;;;;;;;;5101756;28;20045;-81
2022/01/22 08:22:14;;;;;;;12.98;1.45;;;;;;;;;;5081592;27;20043;-81
2022/01/22 08:24:40;;;;;;;13.00;1.58;;;;;;;;;;5078214;27;20035;-81
2022/01/22 08:27:31;;;;;;;6.88;1.10;;;;;;;;;;5100208;27;20039;-81
2022/01/22 08:29:58;;;;;;;6.03;1.17;;;;;;;;;;5081021;27;20050;-81
2022/01/22 08:37:51;;;;;;;12.68;1.30;;;;;;;;;;5096497;28;20496;-81
2022/01/22 08:40:17;;;;;;;13.05;1.65;;;;;;;;;;5098023;27;20350;-81
2022/01/22 08:42:45;;;;;;;5.93;1.08;;;;;;;;;;5100214;27;20046;-81
2022/01/22 08:45:11;;;;;;;8.27;1.15;;;;;;;;;;5103447;27;20062;-82
2022/01/22 08:47:37;;;;;;;4.63;1.02;;;;;;;;;;5099994;27;20752;-81
2022/01/22 08:50:04;;;;;;;8.50;1.17;;;;;;;;;;5084673;27;20053;-85
2022/01/22 08:52:34;;;;;;;1.98;0.80;;;;;;;;;;5082056;27;20045;-82
2022/01/22 08:55:00;;;;;;;9.18;0.98;;;;;;;;;;5090805;27;20385;-81
2022/01/22 08:57:26;;;;;;;6.13;0.85;;;;;;;;;;5082075;27;20427;-80
2022/01/22 08:59:53;;;;;;;7.43;1.63;;;;;;;;;;5096948;27;20047;-78
2022/01/22 09:02:19;;;;;;;8.00;0.90;;;;;;;;;;5095034;27;20524;-78
2022/01/22 09:04:46;;;;;;;7.40;1.35;;;;;;;;;;5101107;27;20066;-78
2022/01/22 09:07:12;;;;;;;71.22;5.18;;;;;;;;;;5093332;27;20496;-78
2022/01/22 09:09:38;;;;;;;6.45;1.30;;;;;;;;;;5093447;27;20039;-78
2022/01/22 09:12:06;;;;;;;8.35;1.52;;;;;;;;;;5089340;27;20054;-78
2022/01/22 09:14:32;;;;;;;5.55;0.93;;;;;;;;;;5095764;28;20048;-77
2022/01/22 09:16:59;;;;;;;20.58;2.38;;;;;;;;;;5091399;27;20097;-78
2022/01/22 09:19:33;;;;;;;7.10;1.83;;;7.40;99.90;;;;;;5093156;27;20042;-78
2022/01/22 09:22:00;;;;;;;9.25;1.77;;;;;;;;;;5101342;27;20087;-78
2022/01/22 09:24:26;;;;;;;22.08;2.00;;;;;;;;;;5094631;28;20039;-78
2022/01/22 09:26:52;;;;;;;7.60;1.40;;;;;;;;;;5080654;27;20316;-78
2022/01/22 09:29:18;;;;;;;11.10;1.33;;;;;;;;;;5093403;27;20555;-78
2022/01/22 09:31:46;;;;;;;13.73;1.80;;;;;;;;;;5095738;27;20573;-78
2022/01/22 09:34:12;;;;;;;19.35;2.95;;;;;;;;;;5095174;27;20039;-78
2022/01/22 09:36:39;;;;;;;16.02;2.47;;;;;;;;;;5095756;27;20045;-78
2022/01/22 09:39:05;;;;;;;14.85;1.67;;;;;;;;;;5100426;27;20085;-78
2022/01/22 09:41:31;;;;;;;11.20;2.95;;;;;;;;;;5094495;27;20491;-78
2022/01/22 09:43:58;;;;;;;14.90;2.63;;;;;;;;;;5095462;28;20047;-79
2022/01/22 09:46:26;;;;;;;16.30;2.50;;;;;;;;;;5090290;28;20043;-80
2022/01/22 09:48:53;;;;;;;23.48;2.83;;;;;;;;;;5088812;28;20044;-79
2022/01/22 09:51:19;;;;;;;9.20;1.85;;;;;;;;;;5088541;28;20125;-79
2022/01/22 09:53:45;;;;;;;23.67;3.53;;;;;;;;;;5092508;28;20520;-79
2022/01/22 09:56:12;;;;;;;17.98;2.90;;;;;;;;;;5073337;28;20354;-79
2022/01/22 09:58:38;;;;;;;11.25;2.28;;;;;;;;;;5094171;28;20039;-79
2022/01/22 10:01:21;;;;;;;17.20;3.45;;;;;;;;;;5094066;28;20250;-79
2022/01/22 10:03:47;;;;;;;15.00;3.15;;;;;;;;;;5095277;28;20055;-79
2022/01/22 10:06:23;;;;;;;128.15;9.27;;;7.50;99.90;;;;;;5079570;28;20094;-79
2022/01/22 10:08:54;;;;;;;18.23;3.17;;;;;;;;;;5092128;28;20040;-79
2022/01/22 10:11:22;;;;;;;12.75;3.17;;;;;;;;;;5089671;28;20051;-79
2022/01/22 10:13:53;;;;;;;14.00;2.80;;;;;;;;;;5087454;28;20442;-79
2022/01/22 10:16:19;;;;;;;13.35;3.10;;;;;;;;;;5091995;28;20040;-79
2022/01/22 10:18:46;;;;;;;14.60;2.67;;;;;;;;;;5095627;28;20044;-79
2022/01/22 10:21:14;;;;;;;18.25;3.53;;;;;;;;;;5103548;28;20039;-79
2022/01/22 10:23:41;;;;;;;17.63;2.90;;;;;;;;;;5101630;28;20035;-79
2022/01/22 10:26:11;;;;;;;16.75;3.30;;;;;;;;;;5100182;28;20043;-79
2022/01/22 10:28:44;;;;;;;14.73;3.25;;;;;;;;;;5092896;28;20381;-79
2022/01/22 10:31:19;;;;;;;19.52;3.70;;;;;;;;;;5098049;28;20070;-79
2022/01/22 10:33:45;;;;;;;17.58;3.42;;;;;;;;;;5079868;28;20055;-78
2022/01/22 10:36:17;;;;;;;15.93;2.85;;;;;;;;;;5078674;28;20112;-79
2022/01/22 10:38:45;;;;;;;17.65;2.60;;;;;;;;;;5102147;28;20130;-79
2022/01/22 10:41:12;;;;;;;19.55;3.03;;;;;;;;;;5091929;28;20463;-79
2022/01/22 10:43:43;;;;;;;13.15;2.67;;;;;;;;;;5081168;28;20047;-79
2022/01/22 10:46:13;;;;;;;12.05;2.70;;;;;;;;;;5100164;28;20051;-79
2022/01/22 10:48:41;;;;;;;12.52;2.42;;;;;;;;;;5090040;28;20205;-79
2022/01/22 10:51:12;;;;;;;8.52;2.47;;;;;;;;;;5099809;27;20490;-79
2022/01/22 10:53:47;;;;;;;7.82;1.90;;;;;;;;;;5073705;28;20044;-79
2022/01/22 10:56:20;;;;;;;8.07;1.63;;;;;;;;;;5098310;28;20505;-79
2022/01/22 10:58:57;;;;;;;7.75;1.73;;;;;;;;;;5077123;28;20515;-79
2022/01/22 11:01:42;;;;;;;8.20;1.27;;;7.60;99.00;;;;;;5082073;28;20084;-79
2022/01/22 11:04:10;;;;;;;10.85;1.27;;;;;;;;;;5094773;28;20096;-79
2022/01/22 11:06:37;;;;;;;4.95;0.80;;;;;;;;;;5091183;28;20478;-79
2022/01/22 11:09:04;;;;;;;12.25;1.65;;;;;;;;;;5077803;28;20040;-79
2022/01/22 11:11:35;;;;;;;7.88;1.92;;;;;;;;;;5095630;28;20193;-79
2022/01/22 11:14:03;;;;;;;19.48;2.92;;;;;;;;;;5093320;28;20031;-79
2022/01/22 11:16:29;;;;;;;5.07;1.25;;;7.70;76.30;;;;;;5100666;28;20047;-78
2022/01/22 11:18:56;;;;;;;4.20;1.10;;;7.70;66.30;;;;;;5097354;28;20035;-79
2022/01/22 11:21:23;;;;;;;6.28;1.88;;;;;;;;;;5094299;28;20382;-79
2022/01/22 11:23:49;;;;;;;5.63;1.23;;;;;;;;;;5096965;28;20067;-79
2022/01/22 11:26:16;;;;;;;10.65;1.45;;;;;;;;;;5077486;28;20603;-78
2022/01/22 11:28:44;;;;;;;8.68;1.35;;;;;;;;;;5075826;28;20055;-79
2022/01/22 11:31:11;;;;;;;10.50;2.47;;;;;;;;;;5090966;28;20044;-77
2022/01/22 11:33:39;;;;;;;9.68;2.08;;;;;;;;;;5079738;28;20526;-79
2022/01/22 11:36:09;;;;;;;10.02;1.30;;;;;;;;;;5096710;28;20378;-78
2022/01/22 11:38:37;;;;;;;9.52;1.55;;;;;;;;;;5097350;28;20040;-79
2022/01/22 11:41:08;;;;;;;15.07;1.95;;;;;;;;;;5075426;28;20039;-79
2022/01/22 11:43:52;;;;;;;11.00;1.63;;;;;;;;;;5092697;28;20055;-79
2022/01/22 11:46:29;;;;;;;7.18;1.38;;;;;;;;;;5076399;28;20036;-79
2022/01/22 11:49:09;;;;;;;9.10;1.75;;;;;;;;;;5094483;28;20093;-79
2022/01/22 11:51:35;;;;;;;16.92;2.17;;;;;;;;;;5093760;27;20043;-79
2022/01/22 11:54:01;;;;;;;7.85;1.38;;;;;;;;;;5089449;28;20043;-79
2022/01/22 11:56:31;;;;;;;12.65;1.27;;;;;;;;;;5084232;28;20051;-79
2022/01/22 11:58:58;;;;;;;15.57;1.80;;;;;;;;;;5099169;28;20047;-79
2022/01/22 12:01:50;;;;;;;13.63;1.70;;;;;;;;;;5095593;28;20114;-79
2022/01/22 12:04:18;;;;;;;13.10;1.20;;;;;;;;;;5089728;28;20527;-78
2022/01/22 12:07:02;;;;;;;10.55;1.23;;;;;;;;;;5089055;28;20059;-79
2022/01/22 12:09:34;;;;;;;7.60;1.33;;;;;;;;;;5096243;28;20105;-78
2022/01/22 12:15:05;;;;;;;7.07;1.00;;;;;;;;;;5095194;28;20070;-79
2022/01/22 12:18:01;;;;;;;8.93;1.38;;;;;;;;;;5079402;28;20044;-79
2022/01/22 12:23:03;;;;;;;4.88;0.73;;;;;;;;;;5094457;28;20093;-78
2022/01/22 12:25:29;;;;;;;4.90;1.13;;;;;;;;;;5088303;28;20054;-79
2022/01/22 12:27:56;;;;;;;8.48;1.17;;;7.10;70.90;;;;;;5091555;28;20039;-78
2022/01/22 12:30:58;;;;;;;6.07;0.93;;;;;;;;;;5082607;28;20476;-78
2022/01/22 12:33:30;;;;;;;5.95;1.85;;;7.10;30.40;;;;;;5018829;28;20124;-79
2022/01/22 12:36:00;;;;;;;11.43;1.55;;;;;;;;;;5070140;28;20051;-77
2022/01/22 12:41:14;;;;;;;7.82;1.55;;;;;;;;;;5097923;28;20040;-80
2022/01/22 12:43:43;;;;;;;7.93;1.10;;;;;;;;;;5093711;28;20048;-80
2022/01/22 12:46:09;;;;;;;8.27;1.20;;;;;;;;;;5094698;28;20048;-80
2022/01/22 12:48:38;;;;;;;8.63;1.60;;;;;;;;;;5091100;28;20048;-79
2022/01/22 12:51:06;;;;;;;7.47;0.93;;;;;;;;;;5092587;27;20081;-80
2022/01/22 12:53:33;;;;;;;3.17;0.80;;;;;;;;;;5077085;28;20134;-79
2022/01/22 12:58:37;;;;;;;13.75;1.42;;;;;;;;;;5100991;28;20457;-80
2022/01/22 13:01:10;;;;;;;9.40;0.80;;;;;;;;;;5090631;27;21478;-80
2022/01/22 13:03:38;;;;;;;7.85;1.02;;;7.40;55.30;;;;;;5079096;28;20075;-80
2022/01/22 13:06:05;;;;;;;7.53;1.55;;;;;;;;;;5091542;28;20066;-80
2022/01/22 13:08:32;;;;;;;8.75;1.45;;;;;;;;;;5096915;28;20043;-79
2022/01/22 13:11:00;;;;;;;6.07;0.88;;;;;;;;;;5089595;28;20213;-79
2022/01/22 13:13:27;;;;;;;8.45;1.25;;;;;;;;;;5097528;28;20114;-79
2022/01/22 13:16:13;;;;;;;6.55;0.98;;;;;;;;;;5091614;28;20047;-80
2022/01/22 13:18:39;;;;;;;8.65;1.23;;;;;;;;;;5100246;28;20039;-80
2022/01/22 13:21:07;;;;;;;7.70;1.00;;;;;;;;;;5080920;28;20101;-80
2022/01/22 13:23:34;;;;;;;4.85;0.65;;;;;;;;;;5096916;28;20043;-79
2022/01/22 13:26:00;;;;;;;10.40;0.90;;;;;;;;;;5078881;28;20036;-80
2022/01/22 13:28:34;;;;;;;7.80;0.93;;;;;;;;;;5079951;28;20112;-80
2022/01/22 13:31:12;;;;;;;6.20;0.85;;;7.30;64.60;;;;;;5092693;28;20031;-80
2022/01/22 13:36:36;;;;;;;3.35;0.88;;;;;;;;;;5091887;28;20054;-79
2022/01/22 13:49:51;;;;;;;4.75;0.50;;;;;;;;;;5088714;28;20127;-79
2022/01/22 13:52:19;;;;;;;5.22;0.80;;;;;;;;;;5091670;28;20508;-80
2022/01/22 13:54:47;;;;;;;6.57;1.00;;;;;;;;;;5070273;28;20679;-79
2022/01/22 13:57:14;;;;;;;6.13;0.80;;;;;;;;;;5091625;28;20050;-79
2022/01/22 13:59:44;;;;;;;5.65;0.88;;;;;;;;;;5091223;28;20036;-80
2022/01/22 14:04:49;;;;;;;5.80;0.77;;;;;;;;;;5088436;28;20043;-79
2022/01/22 14:07:30;;;;;;;12.73;2.15;;;;;;;;;;5067121;28;20040;-79
2022/01/22 14:10:05;;;;;;;12.98;1.25;;;;;;;;;;5073996;28;20097;-80
2022/01/22 14:12:41;;;;;;;6.22;1.10;;;;;;;;;;5088264;28;20040;-79
2022/01/22 14:15:13;;;;;;;11.85;1.85;;;;;;;;;;5093170;28;20047;-80
2022/01/22 14:18:05;;;;;;;11.88;1.48;;;;;;;;;;5094787;28;20054;-80
2022/01/22 14:20:31;;;;;;;13.60;1.13;;;;;;;;;;5078826;28;20054;-80
2022/01/22 14:23:05;;;;;;;11.35;1.30;;;;;;;;;;5085988;28;20037;-80
2022/01/22 14:25:58;;;;;;;6.28;0.90;;;;;;;;;;5077469;28;20040;-80
2022/01/22 14:28:44;;;;;;;7.90;1.00;;;;;;;;;;5088489;28;20051;-80
2022/01/22 14:31:31;;;;;;;4.15;0.63;;;;;;;;;;5083225;28;20521;-80
2022/01/22 14:34:05;;;;;;;5.43;0.90;;;;;;;;;;5092055;28;20419;-80
2022/01/22 14:36:39;;;;;;;7.00;1.00;;;;;;;;;;5079594;28;20154;-80
2022/01/22 14:39:16;;;;;;;7.22;1.10;;;;;;;;;;5074213;28;20059;-80
2022/01/22 14:45:06;;;;;;;8.30;1.42;;;;;;;;;;5088679;28;20428;-80
2022/01/22 14:47:33;;;;;;;8.07;0.93;;;;;;;;;;5075234;28;20036;-82
2022/01/22 14:50:07;;;;;;;7.85;2.20;;;;;;;;;;5087559;28;20048;-81
2022/01/22 14:52:33;;;;;;;10.68;1.30;;;;;;;;;;5093015;28;20392;-82
2022/01/22 14:55:02;;;;;;;8.35;1.30;;;;;;;;;;5091584;28;20039;-82
2022/01/22 14:57:31;;;;;;;4.82;1.23;;;;;;;;;;5081448;28;20043;-82
2022/01/22 14:59:57;;;;;;;9.32;1.40;;;;;;;;;;5094391;28;20125;-82
2022/01/22 15:02:24;;;;;;;9.77;1.02;;;;;;;;;;5088795;28;20035;-82
2022/01/22 15:04:50;;;;;;;6.35;1.42;;;;;;;;;;5093332;28;20036;-82
2022/01/22 15:07:17;;;;;;;10.65;1.10;;;;;;;;;;5080360;28;20074;-82
2022/01/22 15:09:45;;;;;;;7.28;0.77;;;;;;;;;;5079180;28;20534;-82
2022/01/22 15:12:11;;;;;;;10.48;1.33;;;;;;;;;;5092132;28;20052;-81
2022/01/22 15:14:38;;;;;;;5.80;1.15;;;;;;;;;;5093635;28;20417;-82
2022/01/22 15:19:41;;;;;;;14.27;1.10;;;;;;;;;;5092100;28;20468;-82
2022/01/22 15:22:08;;;;;;;8.38;1.25;;;;;;;;;;5093157;28;20043;-82
2022/01/22 15:24:35;;;;;;;8.25;1.10;;;;;;;;;;5080360;28;20047;-82
2022/01/22 15:27:01;;;;;;;5.07;1.20;;;;;;;;;;5090463;28;20043;-82
2022/01/22 15:29:29;;;;;;;6.70;0.95;;;;;;;;;;5075412;28;20044;-82
2022/01/22 15:36:56;;;;;;;6.30;1.20;;;;;;;;;;5098218;28;20047;-82
2022/01/22 15:39:22;;;;;;;10.27;1.17;;;;;;;;;;5072829;28;20044;-82
2022/01/22 15:41:48;;;;;;;8.25;2.72;;;;;;;;;;5096049;28;20122;-82
2022/01/22 15:44:15;;;;;;;13.90;1.80;;;;;;;;;;5096186;28;20101;-82
2022/01/22 15:46:44;;;;;;;13.38;1.75;;;;;;;;;;5095156;28;20769;-83
2022/01/22 15:49:16;;;;;;;10.60;1.33;;;6.50;99.90;;;;;;5098048;28;20048;-82
2022/01/22 15:51:44;;;;;;;9.98;1.52;;;;;;;;;;5099353;27;20791;-82
2022/01/22 15:54:11;;;;;;;10.07;1.20;;;;;;;;;;5088702;28;20527;-82
2022/01/22 15:56:38;;;;;;;11.27;1.35;;;;;;;;;;5092842;27;20047;-82
2022/01/22 15:59:08;;;;;;;21.38;3.05;;;6.50;99.90;;;;;;5097443;28;20051;-82
2022/01/22 16:01:35;;;;;;;9.63;1.75;;;;;;;;;;5098782;28;20048;-82
2022/01/22 16:04:02;;;;;;;9.65;1.40;;;;;;;;;;5095965;28;20123;-81
2022/01/22 16:07:00;;;;;;;15.25;3.30;;;;;;;;;;5096739;28;20078;-81
2022/01/22 16:09:27;;;;;;;21.48;3.88;;;;;;;;;;5097125;28;20050;-83
2022/01/22 16:11:53;;;;;;;13.93;1.30;;;;;;;;;;5076359;28;20131;-81
2022/01/22 16:14:19;;;;;;;8.98;1.40;;;;;;;;;;5093730;28;20035;-80
2022/01/22 16:16:47;;;;;;;9.90;1.85;;;;;;;;;;5095274;28;20054;-81
2022/01/22 16:19:14;;;;;;;9.85;1.23;;;;;;;;;;5077511;28;20058;-80
2022/01/22 16:21:42;;;;;;;8.73;1.70;;;;;;;;;;5089746;28;20040;-80
2022/01/22 16:24:08;;;;;;;11.82;1.98;;;;;;;;;;5087973;28;20637;-81
2022/01/22 16:26:35;;;;;;;8.82;2.05;;;;;;;;;;5091635;28;20217;-81
2022/01/22 16:29:01;;;;;;;11.50;2.00;;;;;;;;;;5097460;28;20070;-81
2022/01/22 16:31:29;;;;;;;13.13;2.88;;;;;;;;;;5099753;28;20035;-81
2022/01/22 16:33:56;;;;;;;15.82;2.47;;;;;;;;;;5080018;28;20043;-81
2022/01/22 16:36:22;;;;;;;18.98;2.97;;;;;;;;;;5077011;28;20134;-80
2022/01/22 16:38:48;;;;;;;12.82;1.80;;;;;;;;;;5074877;28;20050;-80
2022/01/22 16:41:16;;;;;;;11.32;1.80;;;;;;;;;;5072201;28;20043;-80
2022/01/22 16:43:50;;;;;;;8.90;1.67;;;;;;;;;;5070691;28;20170;-80
2022/01/22 16:52:34;;;;;;;15.65;2.75;;;;;;;;;;5050373;27;20055;-80
2022/01/22 16:55:02;;;;;;;15.10;1.50;;;;;;;;;;5091283;28;20129;-80
2022/01/22 16:57:32;;;;;;;13.85;1.40;;;;;;;;;;5077849;28;20040;-80
2022/01/22 17:00:05;;;;;;;12.05;1.40;;;;;;;;;;5076685;28;20223;-80